createdAt,value
2023-05-19T00:01:25.115Z,16.20
2023-05-19T00:03:54.754Z,9.63
2023-05-19T00:06:27.289Z,9.68
2023-05-19T00:09:06.097Z,9.02
2023-05-19T00:11:36.344Z,7.12
2023-05-19T00:16:32.382Z,4.93
2023-05-19T00:19:00.854Z,4.25
2023-05-19T00:21:29.516Z,7.40
2023-05-19T00:23:56.768Z,9.70
2023-05-19T00:26:24.952Z,4.28
2023-05-19T00:28:54.462Z,6.87
2023-05-19T00:31:21.851Z,5.03
2023-05-19T00:33:49.279Z,3.62
2023-05-19T00:36:16.803Z,3.72
2023-05-19T00:38:44.013Z,3.42
2023-05-19T00:41:11.933Z,5.62
2023-05-19T00:43:39.429Z,3.67
2023-05-19T00:46:07.596Z,4.18
2023-05-19T00:48:35.257Z,4.45
2023-05-19T00:51:05.292Z,3.62
2023-05-19T00:53:34.090Z,8.60
2023-05-19T00:56:02.449Z,4.62
2023-05-19T00:58:32.675Z,3.78
2023-05-19T01:01:06.968Z,3.15
2023-05-19T01:03:36.269Z,9.30
2023-05-19T01:06:07.943Z,10.70
2023-05-19T01:08:39.461Z,3.55
2023-05-19T01:11:07.337Z,3.47
2023-05-19T01:13:35.931Z,6.47
2023-05-19T01:16:32.308Z,3.65
2023-05-19T01:19:21.217Z,8.02
2023-05-19T01:21:54.084Z,6.12
2023-05-19T01:24:53.504Z,10.55
2023-05-19T01:27:43.347Z,6.18
2023-05-19T01:30:17.014Z,8.35
2023-05-19T01:32:45.723Z,7.12
2023-05-19T01:35:14.439Z,9.05
2023-05-19T01:37:41.706Z,5.78
2023-05-19T01:40:11.036Z,8.88
2023-05-19T01:42:40.108Z,9.32
2023-05-19T01:45:11.244Z,4.53
2023-05-19T01:47:42.998Z,5.75
2023-05-19T01:50:11.238Z,6.22
2023-05-19T01:52:38.887Z,7.68
2023-05-19T01:55:06.905Z,3.22
2023-05-19T01:57:53.834Z,3.87
2023-05-19T02:00:35.081Z,5.03
2023-05-19T02:03:12.035Z,8.57
2023-05-19T02:06:07.262Z,4.60
2023-05-19T02:09:04.333Z,7.18
2023-05-19T02:12:07.489Z,12.32
2023-05-19T02:14:44.109Z,6.60
2023-05-19T02:17:13.433Z,8.73
2023-05-19T02:19:41.206Z,9.00
2023-05-19T02:22:08.634Z,6.35
2023-05-19T02:24:37.719Z,7.20
2023-05-19T02:27:05.478Z,11.15
2023-05-19T02:29:33.036Z,4.93
2023-05-19T02:32:01.562Z,6.72
2023-05-19T02:34:28.920Z,9.13
2023-05-19T02:36:57.783Z,5.87
2023-05-19T02:39:25.034Z,4.82
2023-05-19T02:41:52.214Z,5.95
2023-05-19T02:44:19.855Z,6.57
2023-05-19T02:46:47.168Z,5.47
2023-05-19T02:49:14.952Z,9.77
2023-05-19T02:51:42.646Z,5.30
2023-05-19T02:54:10.093Z,7.30
2023-05-19T02:56:37.280Z,5.55
2023-05-19T02:59:04.832Z,4.93
2023-05-19T03:01:32.823Z,5.65
2023-05-19T03:04:00.289Z,14.02
2023-05-19T03:06:28.316Z,5.75
2023-05-19T03:08:55.669Z,7.35
2023-05-19T03:11:23.359Z,5.10
2023-05-19T03:13:50.819Z,5.62
2023-05-19T03:16:18.099Z,5.93
2023-05-19T03:18:46.027Z,9.32
2023-05-19T03:21:13.472Z,10.70
2023-05-19T03:23:40.645Z,5.62
2023-05-19T03:26:07.932Z,8.93
2023-05-19T03:28:35.597Z,6.22
2023-05-19T03:31:03.171Z,12.98
2023-05-19T03:33:32.616Z,7.85
2023-05-19T03:36:00.174Z,9.82
2023-05-19T03:38:28.597Z,7.37
2023-05-19T03:40:56.276Z,15.02
2023-05-19T03:43:23.762Z,10.52
2023-05-19T03:45:51.834Z,12.07
2023-05-19T03:48:21.454Z,20.75
2023-05-19T03:50:50.950Z,10.93
2023-05-19T03:53:18.467Z,9.13
2023-05-19T03:55:46.395Z,9.07
2023-05-19T03:58:14.699Z,6.30
2023-05-19T04:00:42.496Z,6.75
2023-05-19T04:03:10.190Z,7.78
2023-05-19T04:05:37.596Z,7.53
2023-05-19T04:08:04.976Z,4.85
2023-05-19T04:10:32.726Z,6.25
2023-05-19T04:13:00.151Z,8.15
2023-05-19T04:15:27.561Z,7.57
2023-05-19T04:17:56.324Z,9.45
2023-05-19T04:20:23.696Z,17.45
2023-05-19T04:22:51.133Z,6.40
2023-05-19T04:25:20.319Z,7.80
2023-05-19T04:27:48.941Z,4.87
2023-05-19T04:30:22.498Z,8.15
2023-05-19T04:32:54.041Z,6.62
2023-05-19T04:35:21.388Z,5.97
2023-05-19T04:37:49.201Z,6.50
2023-05-19T04:40:17.506Z,6.18
2023-05-19T04:42:46.189Z,6.68
2023-05-19T04:45:14.192Z,7.12
2023-05-19T04:47:42.509Z,7.05
2023-05-19T04:50:11.456Z,6.30
2023-05-19T04:52:38.589Z,10.65
2023-05-19T04:55:06.652Z,12.52
2023-05-19T04:57:33.922Z,4.30
2023-05-19T05:00:01.801Z,9.63
2023-05-19T05:02:32.301Z,8.52
2023-05-19T05:05:01.748Z,12.73
2023-05-19T05:07:31.593Z,6.55
2023-05-19T05:12:27.763Z,6.10
2023-05-19T05:14:55.788Z,5.45
2023-05-19T05:17:23.204Z,9.35
2023-05-19T05:19:50.842Z,12.25
2023-05-19T05:22:18.773Z,13.45
2023-05-19T05:24:46.728Z,5.22
2023-05-19T05:27:14.627Z,10.10
2023-05-19T05:29:42.736Z,8.00
2023-05-19T05:32:10.407Z,10.50
2023-05-19T05:34:39.982Z,8.23
2023-05-19T05:37:07.510Z,15.75
2023-05-19T05:39:35.287Z,5.35
2023-05-19T05:42:02.669Z,13.35
2023-05-19T05:44:30.822Z,6.25
2023-05-19T05:46:58.549Z,5.90
2023-05-19T05:49:26.624Z,8.40
2023-05-19T05:52:05.556Z,7.03
2023-05-19T05:54:34.724Z,6.28
2023-05-19T05:57:03.477Z,7.07
2023-05-19T05:59:30.818Z,3.85
2023-05-19T06:01:58.286Z,5.72
2023-05-19T06:04:26.030Z,6.80
2023-05-19T06:06:57.106Z,6.87
2023-05-19T06:09:25.289Z,7.62
2023-05-19T06:11:52.854Z,4.97
2023-05-19T06:14:20.432Z,7.70
2023-05-19T06:16:48.452Z,5.90
2023-05-19T06:19:16.527Z,6.32
2023-05-19T06:21:44.628Z,5.93
2023-05-19T06:24:12.518Z,5.00
2023-05-19T06:26:40.168Z,5.78
2023-05-19T06:29:07.565Z,8.07
2023-05-19T06:31:34.837Z,6.82
2023-05-19T06:34:03.707Z,5.07
2023-05-19T06:36:31.489Z,9.20
2023-05-19T06:39:01.338Z,10.23
2023-05-19T06:41:31.315Z,13.62
2023-05-19T06:43:58.750Z,10.10
2023-05-19T06:46:26.045Z,7.35
2023-05-19T06:48:53.612Z,10.55
2023-05-19T06:51:22.485Z,6.05
2023-05-19T06:53:50.492Z,11.85
2023-05-19T06:56:19.084Z,7.07
2023-05-19T06:58:46.494Z,5.20
2023-05-19T07:01:13.732Z,6.37
2023-05-19T07:03:42.083Z,5.22
2023-05-19T07:06:09.501Z,4.78
2023-05-19T07:08:37.426Z,6.95
2023-05-19T07:11:05.373Z,8.82
2023-05-19T07:13:33.096Z,7.62
2023-05-19T07:16:00.400Z,9.13
2023-05-19T07:18:31.902Z,8.02
2023-05-19T07:21:14.921Z,5.87
2023-05-19T07:23:42.456Z,5.78
2023-05-19T07:26:09.651Z,4.90
2023-05-19T07:28:37.772Z,5.25
2023-05-19T07:31:06.923Z,10.18
2023-05-19T07:33:34.171Z,5.85
2023-05-19T07:36:01.454Z,9.27
2023-05-19T07:38:31.568Z,5.62
2023-05-19T07:40:58.932Z,6.70
2023-05-19T07:43:26.254Z,5.45
2023-05-19T07:45:56.396Z,5.78
2023-05-19T07:48:25.776Z,6.37
2023-05-19T07:50:53.337Z,8.70
2023-05-19T07:53:22.724Z,5.53
2023-05-19T07:58:17.983Z,5.10
2023-05-19T08:00:46.334Z,3.87
2023-05-19T08:03:17.988Z,5.05
2023-05-19T08:05:46.088Z,5.18
2023-05-19T08:08:16.767Z,3.47
2023-05-19T08:10:44.277Z,6.65
2023-05-19T08:13:11.534Z,5.90
2023-05-19T08:15:39.461Z,12.90
2023-05-19T08:18:06.830Z,9.35
2023-05-19T08:20:34.618Z,4.50
2023-05-19T08:23:02.438Z,9.15
2023-05-19T08:25:29.618Z,7.40
2023-05-19T08:27:56.940Z,8.68
2023-05-19T08:30:24.536Z,5.30
2023-05-19T08:32:51.944Z,9.50
2023-05-19T08:35:21.870Z,6.47
2023-05-19T08:37:49.338Z,4.80
2023-05-19T08:40:18.435Z,6.03
2023-05-19T08:42:46.327Z,15.13
2023-05-19T08:45:13.967Z,4.28
2023-05-19T08:47:46.540Z,5.68
2023-05-19T08:50:18.204Z,5.07
2023-05-19T08:52:53.778Z,10.35
2023-05-19T08:55:37.317Z,8.70
2023-05-19T08:58:05.110Z,7.68
2023-05-19T09:00:33.385Z,4.85
2023-05-19T09:03:17.378Z,5.80
2023-05-19T09:09:16.168Z,9.45
2023-05-19T09:15:17.974Z,3.03
2023-05-19T09:17:48.227Z,5.22
2023-05-19T09:20:17.451Z,6.60
2023-05-19T09:22:48.300Z,6.93
2023-05-19T09:25:36.039Z,4.78
2023-05-19T09:28:07.720Z,5.78
2023-05-19T09:30:47.258Z,19.33
2023-05-19T09:33:19.972Z,10.13
2023-05-19T09:35:48.309Z,3.80
2023-05-19T09:38:19.646Z,14.43
2023-05-19T09:40:50.049Z,4.78
2023-05-19T09:43:17.976Z,4.97
2023-05-19T09:45:45.452Z,9.98
2023-05-19T09:48:14.795Z,9.35
2023-05-19T09:50:45.620Z,6.60
2023-05-19T09:53:14.414Z,6.68
2023-05-19T09:55:42.986Z,7.83
2023-05-19T09:58:12.582Z,8.63
2023-05-19T10:00:40.437Z,6.15
2023-05-19T10:03:09.305Z,8.75
2023-05-19T10:05:36.912Z,7.82
2023-05-19T10:08:10.613Z,8.68
2023-05-19T10:10:39.128Z,7.85
2023-05-19T10:13:07.172Z,6.60
2023-05-19T10:15:40.809Z,9.30
2023-05-19T10:24:13.396Z,6.32
2023-05-19T10:26:48.249Z,6.93
2023-05-19T10:29:19.480Z,3.50
2023-05-19T10:31:48.206Z,6.70
2023-05-19T10:34:50.595Z,8.45
2023-05-19T10:37:29.619Z,4.45
2023-05-19T10:39:57.959Z,5.62
2023-05-19T10:43:02.333Z,7.45
2023-05-19T10:45:31.938Z,6.72
2023-05-19T10:47:59.873Z,20.08
2023-05-19T10:50:27.321Z,8.32
2023-05-19T10:52:56.313Z,6.82
2023-05-19T10:55:47.685Z,8.27
2023-05-19T10:58:14.941Z,7.68
2023-05-19T11:00:42.424Z,8.05
2023-05-19T11:03:36.283Z,13.75
2023-05-19T11:06:25.150Z,9.45
2023-05-19T11:08:54.870Z,10.07
2023-05-19T11:11:23.617Z,8.27
2023-05-19T11:13:52.974Z,8.32
2023-05-19T11:16:30.680Z,15.43
2023-05-19T11:19:02.090Z,10.07
2023-05-19T11:21:46.685Z,5.45
2023-05-19T11:24:40.148Z,8.50
2023-05-19T11:27:33.362Z,13.82
2023-05-19T11:30:20.214Z,8.23
2023-05-19T11:32:48.542Z,11.85
2023-05-19T11:35:19.270Z,13.62
2023-05-19T11:37:48.854Z,7.37
2023-05-19T11:40:19.671Z,9.65
2023-05-19T11:42:47.247Z,12.35
2023-05-19T11:45:14.472Z,12.10
2023-05-19T11:48:00.275Z,16.73
2023-05-19T11:50:29.130Z,10.68
2023-05-19T11:52:57.882Z,12.60
2023-05-19T11:55:25.473Z,8.10
2023-05-19T11:58:04.048Z,9.80
2023-05-19T12:00:40.402Z,10.65
2023-05-19T12:03:09.565Z,13.55
2023-05-19T12:05:42.794Z,10.63
2023-05-19T12:08:12.017Z,16.40
2023-05-19T12:10:40.479Z,13.10
2023-05-19T12:13:12.151Z,9.73
2023-05-19T12:15:41.351Z,9.30
2023-05-19T12:18:08.746Z,7.07
2023-05-19T12:20:36.601Z,6.85
2023-05-19T12:23:04.863Z,8.05
2023-05-19T12:25:32.870Z,9.13
2023-05-19T12:28:04.936Z,10.88
2023-05-19T12:30:35.997Z,8.35
2023-05-19T12:33:03.748Z,10.88
2023-05-19T12:35:36.297Z,8.02
2023-05-19T12:38:05.125Z,7.28
2023-05-19T12:40:37.737Z,9.27
2023-05-19T12:43:06.924Z,6.85
2023-05-19T12:45:38.352Z,10.98
2023-05-19T12:48:11.215Z,6.97
2023-05-19T12:50:38.694Z,34.20
2023-05-19T12:53:09.306Z,7.22
2023-05-19T12:55:44.104Z,27.85
2023-05-19T12:58:12.395Z,9.75
2023-05-19T13:00:49.902Z,7.75
2023-05-19T13:03:19.832Z,15.05
2023-05-19T13:05:54.023Z,5.05
2023-05-19T13:08:26.645Z,6.93
2023-05-19T13:10:54.427Z,11.88
2023-05-19T13:13:23.217Z,10.55
2023-05-19T13:15:50.467Z,8.77
2023-05-19T13:18:24.931Z,6.70
2023-05-19T13:20:57.638Z,9.43
2023-05-19T13:23:25.854Z,16.65
2023-05-19T13:25:53.464Z,8.90
2023-05-19T13:28:20.953Z,6.45
2023-05-19T13:30:49.707Z,9.98
2023-05-19T13:33:20.221Z,5.13
2023-05-19T13:35:50.223Z,8.98
2023-05-19T13:38:17.840Z,4.87
2023-05-19T13:40:45.763Z,12.30
2023-05-19T13:43:13.170Z,18.90
2023-05-19T13:45:42.903Z,12.43
2023-05-19T13:48:11.940Z,8.32
2023-05-19T13:50:39.269Z,8.90
2023-05-19T13:53:06.753Z,8.15
2023-05-19T13:55:34.048Z,7.68
2023-05-19T13:58:01.414Z,7.10
2023-05-19T14:00:29.056Z,8.95
2023-05-19T14:02:56.774Z,8.85
2023-05-19T14:05:24.116Z,12.25
2023-05-19T14:07:51.822Z,8.50
2023-05-19T14:10:19.394Z,9.63
2023-05-19T14:13:14.170Z,8.20
2023-05-19T14:15:37.934Z,5.03
2023-05-19T14:18:06.673Z,6.60
2023-05-19T14:20:39.193Z,9.27
2023-05-19T14:23:10.532Z,11.77
2023-05-19T14:25:39.407Z,3.83
2023-05-19T14:28:06.734Z,6.30
2023-05-19T14:30:36.308Z,7.57
2023-05-19T14:33:04.034Z,4.93
2023-05-19T14:35:31.304Z,4.35
2023-05-19T14:37:58.900Z,6.22
2023-05-19T14:40:26.658Z,10.63
2023-05-19T14:42:55.029Z,7.75
2023-05-19T14:45:22.230Z,7.37
2023-05-19T14:47:49.964Z,7.65
2023-05-19T14:50:17.258Z,5.25
2023-05-19T14:52:44.742Z,10.65
2023-05-19T14:55:12.266Z,6.07
2023-05-19T14:57:39.518Z,8.23
2023-05-19T15:00:09.327Z,8.40
2023-05-19T15:02:36.836Z,4.70
2023-05-19T15:05:04.644Z,8.88
2023-05-19T15:07:32.013Z,8.48
2023-05-19T15:09:59.856Z,8.80
2023-05-19T15:12:29.557Z,4.05
2023-05-19T15:14:56.922Z,17.17
2023-05-19T15:17:24.447Z,9.55
2023-05-19T15:19:51.850Z,11.93
2023-05-19T15:22:19.192Z,10.10
2023-05-19T15:24:46.860Z,7.68
2023-05-19T15:27:14.133Z,5.62
2023-05-19T15:29:41.356Z,6.47
2023-05-19T15:32:09.039Z,8.32
2023-05-19T15:34:36.540Z,5.00
2023-05-19T15:37:04.086Z,7.78
2023-05-19T15:39:32.392Z,7.10
2023-05-19T15:41:59.749Z,9.27
2023-05-19T15:44:28.939Z,19.60
2023-05-19T15:46:57.106Z,8.25
2023-05-19T15:49:27.570Z,32.97
2023-05-19T15:51:54.925Z,88.95
2023-05-19T15:54:22.564Z,8.93
2023-05-19T15:56:49.868Z,13.25
2023-05-19T15:59:17.308Z,10.55
2023-05-19T16:01:45.097Z,18.48
2023-05-19T16:04:12.775Z,5.20
2023-05-19T16:06:40.050Z,23.77
2023-05-19T16:09:07.270Z,6.30
2023-05-19T16:11:34.825Z,8.07
2023-05-19T16:14:02.006Z,4.60
2023-05-19T16:16:37.524Z,8.07
2023-05-19T16:19:05.202Z,8.25
2023-05-19T16:21:43.656Z,7.95
2023-05-19T16:24:11.276Z,5.72
2023-05-19T16:26:38.604Z,5.85
2023-05-19T16:29:06.047Z,4.95
2023-05-19T16:31:36.313Z,5.30
2023-05-19T16:34:03.891Z,9.82
2023-05-19T16:36:31.984Z,8.85
2023-05-19T16:39:01.818Z,6.68
2023-05-19T16:41:29.125Z,7.60
2023-05-19T16:43:56.388Z,9.77
2023-05-19T16:46:24.152Z,8.98
2023-05-19T16:48:51.846Z,15.07
2023-05-19T16:51:19.199Z,7.65
2023-05-19T16:53:47.829Z,6.03
2023-05-19T16:56:15.150Z,10.38
2023-05-19T16:58:42.406Z,6.15
2023-05-19T17:01:12.088Z,8.02
2023-05-19T17:03:39.485Z,4.97
2023-05-19T17:06:06.808Z,9.45
2023-05-19T17:08:34.475Z,7.80
2023-05-19T17:11:01.915Z,7.47
2023-05-19T17:13:33.867Z,8.48
2023-05-19T17:16:02.584Z,6.47
2023-05-19T17:18:31.395Z,7.97
2023-05-19T17:21:03.905Z,3.65
2023-05-19T17:23:32.598Z,15.77
2023-05-19T17:26:00.551Z,23.83
2023-05-19T17:28:30.974Z,16.50
2023-05-19T17:30:58.934Z,18.75
2023-05-19T17:33:26.432Z,16.83
2023-05-19T17:35:53.769Z,13.57
2023-05-19T17:38:23.912Z,11.45
2023-05-19T17:40:51.189Z,16.90
2023-05-19T17:43:18.465Z,12.55
2023-05-19T17:45:46.039Z,14.35
2023-05-19T17:48:13.476Z,6.75
2023-05-19T17:50:40.851Z,10.43
2023-05-19T17:53:08.927Z,7.12
2023-05-19T17:55:36.553Z,7.45
2023-05-19T17:58:04.177Z,9.73
2023-05-19T18:00:32.154Z,7.97
2023-05-19T18:03:01.939Z,5.47
2023-05-19T18:05:33.417Z,10.17
2023-05-19T18:08:05.140Z,7.00
2023-05-19T18:10:36.607Z,10.43
2023-05-19T18:13:05.430Z,15.15
2023-05-19T18:15:33.069Z,10.65
2023-05-19T18:18:02.521Z,10.02
2023-05-19T18:20:31.212Z,14.85
2023-05-19T18:22:58.665Z,14.45
2023-05-19T18:25:26.385Z,16.35
2023-05-19T18:27:55.927Z,10.52
2023-05-19T18:30:23.654Z,13.20
2023-05-19T18:32:51.005Z,25.27
2023-05-19T18:35:20.852Z,37.55
2023-05-19T18:37:48.171Z,27.30
2023-05-19T18:40:15.447Z,17.83
2023-05-19T18:42:43.263Z,15.70
2023-05-19T18:45:20.298Z,19.35
2023-05-19T18:47:48.251Z,18.27
2023-05-19T18:50:16.718Z,12.73
2023-05-19T18:52:44.067Z,15.55
2023-05-19T18:55:11.662Z,16.48
2023-05-19T18:57:38.981Z,13.32
2023-05-19T19:00:07.033Z,16.30
2023-05-19T19:02:34.671Z,21.42
2023-05-19T19:05:04.136Z,22.60
2023-05-19T19:07:31.901Z,19.40
2023-05-19T19:09:59.516Z,29.40
2023-05-19T19:12:26.821Z,27.48
2023-05-19T19:14:54.656Z,33.03
2023-05-19T19:17:22.257Z,25.98
2023-05-19T19:19:50.024Z,19.85
2023-05-19T19:22:17.521Z,17.40
2023-05-19T19:24:45.647Z,34.92
2023-05-19T19:27:13.401Z,31.20
2023-05-19T19:29:40.830Z,24.10
2023-05-19T19:32:08.621Z,26.73
2023-05-19T19:34:36.063Z,31.75
2023-05-19T19:37:04.055Z,23.12
2023-05-19T19:39:31.724Z,29.90
2023-05-19T19:41:59.002Z,34.15
2023-05-19T19:44:26.335Z,32.38
2023-05-19T19:46:54.067Z,38.03
2023-05-19T19:49:21.523Z,35.08
2023-05-19T19:51:49.107Z,33.70
2023-05-19T19:54:16.740Z,25.92
2023-05-19T19:56:57.062Z,26.52
2023-05-19T20:06:02.466Z,26.42
2023-05-19T20:08:29.959Z,26.62
2023-05-19T20:10:57.149Z,22.77
2023-05-19T20:13:24.497Z,22.23
2023-05-19T20:15:52.138Z,20.55
2023-05-19T20:18:19.320Z,25.50
2023-05-19T20:20:46.666Z,22.00
2023-05-19T20:23:16.301Z,26.65
2023-05-19T20:25:58.524Z,30.85
2023-05-19T20:28:30.586Z,30.83
2023-05-19T20:30:57.973Z,25.25
2023-05-19T20:33:25.252Z,27.15
2023-05-19T20:35:52.721Z,19.55
2023-05-19T20:38:19.972Z,24.15
2023-05-19T20:40:47.847Z,26.35
2023-05-19T20:52:42.297Z,25.05
2023-05-19T20:58:40.661Z,18.67
2023-05-19T21:01:08.249Z,18.85
2023-05-19T21:03:35.777Z,21.98
2023-05-19T21:06:03.316Z,24.63
2023-05-19T21:08:30.941Z,35.10
2023-05-19T21:10:58.240Z,29.50
2023-05-19T21:13:25.499Z,24.42
2023-05-19T21:15:53.020Z,18.85
2023-05-19T21:18:20.366Z,24.70
2023-05-19T21:20:47.766Z,17.27
2023-05-19T21:23:15.793Z,19.30
2023-05-19T21:25:45.172Z,23.38
2023-05-19T21:28:12.843Z,15.40
2023-05-19T21:30:40.414Z,15.23
2023-05-19T21:33:07.836Z,17.15
2023-05-19T21:35:35.143Z,16.40
2023-05-19T21:38:12.116Z,15.63
2023-05-19T21:40:49.817Z,17.42
2023-05-19T21:43:17.445Z,18.90
2023-05-19T21:45:45.148Z,21.83
2023-05-19T21:48:12.420Z,26.52
2023-05-19T21:50:40.094Z,19.35
2023-05-19T21:53:07.345Z,14.00
2023-05-19T21:55:34.987Z,15.40
2023-05-19T21:58:02.963Z,14.60
2023-05-19T22:00:30.418Z,14.35
2023-05-19T22:02:58.067Z,14.25
2023-05-19T22:05:25.783Z,13.75
2023-05-19T22:07:52.932Z,12.68
2023-05-19T22:10:20.430Z,10.18
2023-05-19T22:12:47.758Z,14.38
2023-05-19T22:15:15.944Z,15.73
2023-05-19T22:17:43.848Z,13.82
2023-05-19T22:20:11.932Z,11.43
2023-05-19T22:22:39.159Z,14.13
2023-05-19T22:25:07.201Z,11.27
2023-05-19T22:27:34.479Z,23.38
2023-05-19T22:30:01.778Z,14.50
2023-05-19T22:32:30.466Z,13.82
2023-05-19T22:34:57.682Z,9.15
2023-05-19T22:37:24.943Z,14.10
2023-05-19T22:39:52.465Z,11.70
2023-05-19T22:42:19.750Z,10.02
2023-05-19T22:44:46.977Z,11.50
2023-05-19T22:47:15.090Z,12.93
2023-05-19T22:56:35.888Z,12.00
2023-05-19T22:59:03.426Z,14.55
2023-05-19T23:01:30.731Z,9.63
2023-05-19T23:03:58.045Z,12.45
2023-05-19T23:06:25.790Z,12.15
2023-05-19T23:09:01.143Z,11.77
2023-05-19T23:11:28.658Z,14.85
2023-05-19T23:13:56.057Z,12.90
2023-05-19T23:16:23.337Z,14.73
2023-05-19T23:18:50.987Z,18.17
2023-05-19T23:21:18.284Z,13.75
2023-05-19T23:23:45.615Z,15.02
2023-05-19T23:26:16.221Z,12.25
2023-05-19T23:28:43.681Z,13.62
2023-05-19T23:31:10.993Z,16.08
2023-05-19T23:33:38.655Z,18.10
2023-05-19T23:36:10.214Z,11.02
2023-05-19T23:38:37.867Z,11.10
2023-05-19T23:41:05.664Z,10.88
2023-05-19T23:43:32.991Z,18.42
2023-05-19T23:46:00.615Z,10.88
2023-05-19T23:48:29.273Z,12.45
2023-05-19T23:50:57.649Z,31.58
2023-05-19T23:53:25.202Z,15.70
2023-05-19T23:55:52.729Z,17.85
2023-05-19T23:58:20.006Z,11.35
